sensor_id;sensor_type;location;lat;lon;timestamp;temperature;humidity
15103;DHT22;7652;53.584;9.998;2023-05-21T00:01:39;13.50;99.90
15103;DHT22;7652;53.584;9.998;2023-05-21T00:05:01;13.50;99.90
15103;DHT22;7652;53.584;9.998;2023-05-21T00:08:23;13.40;99.90
15103;DHT22;7652;53.584;9.998;2023-05-21T00:11:46;13.30;99.90
15103;DHT22;7652;53.584;9.998;2023-05-21T00:15:08;13.30;99.90
15103;DHT22;7652;53.584;9.998;2023-05-21T00:18:30;13.30;99.90
15103;DHT22;7652;53.584;9.998;2023-05-21T00:21:53;13.30;99.90
15103;DHT22;7652;53.584;9.998;2023-05-21T00:25:15;13.20;99.90
15103;DHT22;7652;53.584;9.998;2023-05-21T00:28:37;13.20;99.90
15103;DHT22;7652;53.584;9.998;2023-05-21T00:31:58;13.20;99.90
15103;DHT22;7652;53.584;9.998;2023-05-21T00:35:20;13.20;99.90
15103;DHT22;7652;53.584;9.998;2023-05-21T00:38:41;13.10;99.90
15103;DHT22;7652;53.584;9.998;2023-05-21T00:42:05;13.10;99.90
15103;DHT22;7652;53.584;9.998;2023-05-21T00:45:28;13.00;99.90
15103;DHT22;7652;53.584;9.998;2023-05-21T00:48:49;12.90;99.90
15103;DHT22;7652;53.584;9.998;2023-05-21T00:52:11;13.10;99.90
15103;DHT22;7652;53.584;9.998;2023-05-21T00:55:32;13.00;99.90
15103;DHT22;7652;53.584;9.998;2023-05-21T00:58:55;13.10;99.90
15103;DHT22;7652;53.584;9.998;2023-05-21T01:02:18;13.00;99.90
15103;DHT22;7652;53.584;9.998;2023-05-21T01:05:44;13.00;99.90
15103;DHT22;7652;53.584;9.998;2023-05-21T01:09:06;13.00;99.90
15103;DHT22;7652;53.584;9.998;2023-05-21T01:12:29;13.00;99.90
15103;DHT22;7652;53.584;9.998;2023-05-21T01:15:52;13.00;99.90
15103;DHT22;7652;53.584;9.998;2023-05-21T01:19:17;12.90;99.90
15103;DHT22;7652;53.584;9.998;2023-05-21T01:26:05;12.90;99.90
15103;DHT22;7652;53.584;9.998;2023-05-21T01:29:28;12.90;99.90
15103;DHT22;7652;53.584;9.998;2023-05-21T01:32:55;12.90;99.90
15103;DHT22;7652;53.584;9.998;2023-05-21T01:36:22;12.90;99.90
15103;DHT22;7652;53.584;9.998;2023-05-21T01:39:50;12.80;99.90
15103;DHT22;7652;53.584;9.998;2023-05-21T01:43:14;12.80;99.90
15103;DHT22;7652;53.584;9.998;2023-05-21T01:46:36;12.80;99.90
15103;DHT22;7652;53.584;9.998;2023-05-21T01:49:59;12.80;99.90
15103;DHT22;7652;53.584;9.998;2023-05-21T01:53:21;12.70;99.90
15103;DHT22;7652;53.584;9.998;2023-05-21T01:56:42;12.70;99.90
15103;DHT22;7652;53.584;9.998;2023-05-21T02:00:06;12.70;99.90
15103;DHT22;7652;53.584;9.998;2023-05-21T02:03:28;12.70;99.90
15103;DHT22;7652;53.584;9.998;2023-05-21T02:06:51;12.60;99.90
15103;DHT22;7652;53.584;9.998;2023-05-21T02:10:14;12.70;99.90
15103;DHT22;7652;53.584;9.998;2023-05-21T02:13:36;12.80;99.90
15103;DHT22;7652;53.584;9.998;2023-05-21T02:17:03;12.80;99.90
15103;DHT22;7652;53.584;9.998;2023-05-21T02:20:25;12.70;99.90
15103;DHT22;7652;53.584;9.998;2023-05-21T02:23:46;12.70;99.90
15103;DHT22;7652;53.584;9.998;2023-05-21T02:27:07;12.70;99.90
15103;DHT22;7652;53.584;9.998;2023-05-21T02:30:29;12.70;99.90
15103;DHT22;7652;53.584;9.998;2023-05-21T02:33:52;12.60;99.90
15103;DHT22;7652;53.584;9.998;2023-05-21T02:37:14;12.50;99.90
15103;DHT22;7652;53.584;9.998;2023-05-21T02:40:36;12.50;99.90
15103;DHT22;7652;53.584;9.998;2023-05-21T02:43:57;12.50;99.90
15103;DHT22;7652;53.584;9.998;2023-05-21T02:47:19;12.50;99.90
15103;DHT22;7652;53.584;9.998;2023-05-21T02:50:44;12.60;99.90
15103;DHT22;7652;53.584;9.998;2023-05-21T02:54:05;12.50;99.90
15103;DHT22;7652;53.584;9.998;2023-05-21T02:57:27;12.50;99.90
15103;DHT22;7652;53.584;9.998;2023-05-21T03:00:48;12.50;99.90
15103;DHT22;7652;53.584;9.998;2023-05-21T03:04:10;12.40;99.90
15103;DHT22;7652;53.584;9.998;2023-05-21T03:07:33;12.50;99.90
15103;DHT22;7652;53.584;9.998;2023-05-21T03:10:54;12.50;99.90
15103;DHT22;7652;53.584;9.998;2023-05-21T03:14:15;12.40;99.90
15103;DHT22;7652;53.584;9.998;2023-05-21T03:17:37;12.50;99.90
15103;DHT22;7652;53.584;9.998;2023-05-21T03:20:59;12.40;99.90
15103;DHT22;7652;53.584;9.998;2023-05-21T03:24:22;12.50;99.90
15103;DHT22;7652;53.584;9.998;2023-05-21T03:27:43;12.50;99.90
15103;DHT22;7652;53.584;9.998;2023-05-21T03:31:04;12.40;99.90
15103;DHT22;7652;53.584;9.998;2023-05-21T03:34:26;12.40;99.90
15103;DHT22;7652;53.584;9.998;2023-05-21T03:37:48;12.30;99.90
15103;DHT22;7652;53.584;9.998;2023-05-21T03:41:11;12.30;99.90
15103;DHT22;7652;53.584;9.998;2023-05-21T03:44:32;12.20;99.90
15103;DHT22;7652;53.584;9.998;2023-05-21T03:47:54;12.30;99.90
15103;DHT22;7652;53.584;9.998;2023-05-21T03:51:16;12.30;99.90
15103;DHT22;7652;53.584;9.998;2023-05-21T03:54:39;12.30;99.90
15103;DHT22;7652;53.584;9.998;2023-05-21T03:58:02;12.30;99.90
15103;DHT22;7652;53.584;9.998;2023-05-21T04:01:25;12.40;99.90
15103;DHT22;7652;53.584;9.998;2023-05-21T04:04:47;12.40;99.90
15103;DHT22;7652;53.584;9.998;2023-05-21T04:08:11;12.50;99.90
15103;DHT22;7652;53.584;9.998;2023-05-21T04:11:33;12.50;99.90
15103;DHT22;7652;53.584;9.998;2023-05-21T04:14:55;12.60;99.90
15103;DHT22;7652;53.584;9.998;2023-05-21T04:18:17;12.80;99.90
15103;DHT22;7652;53.584;9.998;2023-05-21T04:21:39;12.80;99.90
15103;DHT22;7652;53.584;9.998;2023-05-21T04:25:01;12.80;99.90
15103;DHT22;7652;53.584;9.998;2023-05-21T04:28:22;12.90;99.90
15103;DHT22;7652;53.584;9.998;2023-05-21T04:31:45;13.00;99.90
15103;DHT22;7652;53.584;9.998;2023-05-21T04:35:07;13.00;99.90
15103;DHT22;7652;53.584;9.998;2023-05-21T04:38:29;13.00;99.90
15103;DHT22;7652;53.584;9.998;2023-05-21T04:41:50;13.00;99.90
15103;DHT22;7652;53.584;9.998;2023-05-21T04:45:14;13.10;99.90
15103;DHT22;7652;53.584;9.998;2023-05-21T04:48:38;13.20;99.90
15103;DHT22;7652;53.584;9.998;2023-05-21T04:52:00;13.20;99.90
15103;DHT22;7652;53.584;9.998;2023-05-21T04:55:22;13.30;99.90
15103;DHT22;7652;53.584;9.998;2023-05-21T04:58:43;13.40;99.90
15103;DHT22;7652;53.584;9.998;2023-05-21T05:02:06;13.50;99.90
15103;DHT22;7652;53.584;9.998;2023-05-21T05:05:29;13.60;99.90
15103;DHT22;7652;53.584;9.998;2023-05-21T05:08:51;13.70;99.90
15103;DHT22;7652;53.584;9.998;2023-05-21T05:12:12;13.80;99.90
15103;DHT22;7652;53.584;9.998;2023-05-21T05:15:33;13.80;99.90
15103;DHT22;7652;53.584;9.998;2023-05-21T05:18:55;13.90;99.90
15103;DHT22;7652;53.584;9.998;2023-05-21T05:22:18;14.00;99.90
15103;DHT22;7652;53.584;9.998;2023-05-21T05:25:40;14.10;99.90
15103;DHT22;7652;53.584;9.998;2023-05-21T05:29:01;14.10;99.90
15103;DHT22;7652;53.584;9.998;2023-05-21T05:32:22;14.10;99.90
15103;DHT22;7652;53.584;9.998;2023-05-21T05:35:44;14.20;99.90
15103;DHT22;7652;53.584;9.998;2023-05-21T05:39:07;14.30;99.90
15103;DHT22;7652;53.584;9.998;2023-05-21T05:42:28;14.40;99.90
15103;DHT22;7652;53.584;9.998;2023-05-21T05:45:49;14.60;99.90
15103;DHT22;7652;53.584;9.998;2023-05-21T05:49:11;14.80;99.90
15103;DHT22;7652;53.584;9.998;2023-05-21T05:52:32;14.90;99.90
15103;DHT22;7652;53.584;9.998;2023-05-21T05:55:55;15.00;99.90
15103;DHT22;7652;53.584;9.998;2023-05-21T05:59:39;15.10;99.90
15103;DHT22;7652;53.584;9.998;2023-05-21T06:03:00;15.40;99.90
15103;DHT22;7652;53.584;9.998;2023-05-21T06:06:22;15.70;99.90
15103;DHT22;7652;53.584;9.998;2023-05-21T06:09:44;16.10;99.90
15103;DHT22;7652;53.584;9.998;2023-05-21T06:13:07;16.40;99.90
15103;DHT22;7652;53.584;9.998;2023-05-21T06:16:28;16.80;99.90
15103;DHT22;7652;53.584;9.998;2023-05-21T06:19:50;17.10;99.90
15103;DHT22;7652;53.584;9.998;2023-05-21T06:23:12;17.30;99.90
15103;DHT22;7652;53.584;9.998;2023-05-21T06:26:33;17.30;99.90
15103;DHT22;7652;53.584;9.998;2023-05-21T06:29:56;17.90;99.90
15103;DHT22;7652;53.584;9.998;2023-05-21T06:33:18;18.00;99.90
15103;DHT22;7652;53.584;9.998;2023-05-21T06:36:39;18.20;99.90
15103;DHT22;7652;53.584;9.998;2023-05-21T06:40:01;18.20;99.90
15103;DHT22;7652;53.584;9.998;2023-05-21T06:43:23;18.30;99.90
15103;DHT22;7652;53.584;9.998;2023-05-21T06:46:46;18.10;99.90
15103;DHT22;7652;53.584;9.998;2023-05-21T06:50:08;17.70;99.90
15103;DHT22;7652;53.584;9.998;2023-05-21T06:53:29;17.60;99.90
15103;DHT22;7652;53.584;9.998;2023-05-21T06:56:51;17.60;99.90
15103;DHT22;7652;53.584;9.998;2023-05-21T07:00:12;17.50;99.90
15103;DHT22;7652;53.584;9.998;2023-05-21T07:03:36;17.60;99.90
15103;DHT22;7652;53.584;9.998;2023-05-21T07:06:58;17.60;99.90
15103;DHT22;7652;53.584;9.998;2023-05-21T07:10:19;17.80;99.90
15103;DHT22;7652;53.584;9.998;2023-05-21T07:13:41;17.80;99.90
15103;DHT22;7652;53.584;9.998;2023-05-21T07:17:02;17.80;99.90
15103;DHT22;7652;53.584;9.998;2023-05-21T07:20:25;17.90;99.90
15103;DHT22;7652;53.584;9.998;2023-05-21T07:23:47;17.80;99.90
15103;DHT22;7652;53.584;9.998;2023-05-21T07:27:08;17.90;99.90
15103;DHT22;7652;53.584;9.998;2023-05-21T07:30:45;18.10;99.90
15103;DHT22;7652;53.584;9.998;2023-05-21T07:34:06;18.10;99.90
15103;DHT22;7652;53.584;9.998;2023-05-21T07:37:29;18.30;99.90
15103;DHT22;7652;53.584;9.998;2023-05-21T07:40:50;18.40;99.90
15103;DHT22;7652;53.584;9.998;2023-05-21T07:44:12;18.40;99.90
15103;DHT22;7652;53.584;9.998;2023-05-21T07:47:33;18.40;99.90
15103;DHT22;7652;53.584;9.998;2023-05-21T07:50:57;18.60;99.90
15103;DHT22;7652;53.584;9.998;2023-05-21T07:54:20;18.90;99.90
15103;DHT22;7652;53.584;9.998;2023-05-21T07:57:41;19.00;99.90
15103;DHT22;7652;53.584;9.998;2023-05-21T08:01:04;19.20;99.90
15103;DHT22;7652;53.584;9.998;2023-05-21T08:04:26;19.30;99.90
15103;DHT22;7652;53.584;9.998;2023-05-21T08:07:48;19.40;99.90
15103;DHT22;7652;53.584;9.998;2023-05-21T08:11:11;19.50;99.90
15103;DHT22;7652;53.584;9.998;2023-05-21T08:14:32;19.40;99.90
15103;DHT22;7652;53.584;9.998;2023-05-21T08:17:53;19.40;99.90
15103;DHT22;7652;53.584;9.998;2023-05-21T08:21:15;19.50;99.90
15103;DHT22;7652;53.584;9.998;2023-05-21T08:24:37;19.50;99.90
15103;DHT22;7652;53.584;9.998;2023-05-21T08:27:59;19.60;99.90
15103;DHT22;7652;53.584;9.998;2023-05-21T08:31:21;19.60;99.90
15103;DHT22;7652;53.584;9.998;2023-05-21T08:34:42;19.60;99.90
15103;DHT22;7652;53.584;9.998;2023-05-21T08:38:04;19.70;99.90
15103;DHT22;7652;53.584;9.998;2023-05-21T08:41:26;20.00;99.90
15103;DHT22;7652;53.584;9.998;2023-05-21T08:44:51;20.10;99.90
15103;DHT22;7652;53.584;9.998;2023-05-21T08:48:15;20.30;99.90
15103;DHT22;7652;53.584;9.998;2023-05-21T08:51:37;20.30;99.90
15103;DHT22;7652;53.584;9.998;2023-05-21T08:54:59;20.40;99.90
15103;DHT22;7652;53.584;9.998;2023-05-21T08:58:22;20.40;99.90
15103;DHT22;7652;53.584;9.998;2023-05-21T09:01:45;20.40;99.90
15103;DHT22;7652;53.584;9.998;2023-05-21T09:05:09;20.50;99.90
15103;DHT22;7652;53.584;9.998;2023-05-21T09:08:34;20.60;99.90
15103;DHT22;7652;53.584;9.998;2023-05-21T09:11:58;20.60;99.90
15103;DHT22;7652;53.584;9.998;2023-05-21T09:15:20;20.60;99.90
15103;DHT22;7652;53.584;9.998;2023-05-21T09:18:44;20.60;99.90
15103;DHT22;7652;53.584;9.998;2023-05-21T09:22:05;20.70;99.90
15103;DHT22;7652;53.584;9.998;2023-05-21T09:25:27;20.70;99.90
15103;DHT22;7652;53.584;9.998;2023-05-21T09:28:48;20.80;99.90
15103;DHT22;7652;53.584;9.998;2023-05-21T09:32:10;20.70;99.90
15103;DHT22;7652;53.584;9.998;2023-05-21T09:35:33;20.80;99.90
15103;DHT22;7652;53.584;9.998;2023-05-21T09:38:57;20.80;99.90
15103;DHT22;7652;53.584;9.998;2023-05-21T09:42:20;20.90;99.90
15103;DHT22;7652;53.584;9.998;2023-05-21T09:45:49;21.10;99.90
15103;DHT22;7652;53.584;9.998;2023-05-21T09:49:22;21.20;99.90
15103;DHT22;7652;53.584;9.998;2023-05-21T09:52:47;21.00;99.90
15103;DHT22;7652;53.584;9.998;2023-05-21T09:56:10;21.10;99.90
15103;DHT22;7652;53.584;9.998;2023-05-21T09:59:35;21.30;99.90
15103;DHT22;7652;53.584;9.998;2023-05-21T10:03:00;21.50;99.90
15103;DHT22;7652;53.584;9.998;2023-05-21T10:06:23;21.70;99.90
15103;DHT22;7652;53.584;9.998;2023-05-21T10:09:46;21.80;99.90
15103;DHT22;7652;53.584;9.998;2023-05-21T10:13:11;21.90;99.90
15103;DHT22;7652;53.584;9.998;2023-05-21T10:16:34;22.00;99.90
15103;DHT22;7652;53.584;9.998;2023-05-21T10:19:56;22.10;99.90
15103;DHT22;7652;53.584;9.998;2023-05-21T10:23:19;22.20;99.90
15103;DHT22;7652;53.584;9.998;2023-05-21T10:26:42;22.40;99.90
15103;DHT22;7652;53.584;9.998;2023-05-21T10:30:05;22.60;99.90
15103;DHT22;7652;53.584;9.998;2023-05-21T10:33:28;22.70;99.90
15103;DHT22;7652;53.584;9.998;2023-05-21T10:36:50;22.70;99.90
15103;DHT22;7652;53.584;9.998;2023-05-21T10:40:13;22.90;99.90
15103;DHT22;7652;53.584;9.998;2023-05-21T10:43:48;23.10;99.90
15103;DHT22;7652;53.584;9.998;2023-05-21T10:47:37;23.20;99.90
15103;DHT22;7652;53.584;9.998;2023-05-21T10:51:13;23.20;99.90
15103;DHT22;7652;53.584;9.998;2023-05-21T10:54:46;23.30;99.90
15103;DHT22;7652;53.584;9.998;2023-05-21T10:58:31;23.30;99.90
15103;DHT22;7652;53.584;9.998;2023-05-21T11:01:59;23.20;99.90
15103;DHT22;7652;53.584;9.998;2023-05-21T11:05:37;23.40;99.90
15103;DHT22;7652;53.584;9.998;2023-05-21T11:09:01;23.60;99.90
15103;DHT22;7652;53.584;9.998;2023-05-21T11:12:22;23.80;99.90
15103;DHT22;7652;53.584;9.998;2023-05-21T11:16:04;23.70;99.90
15103;DHT22;7652;53.584;9.998;2023-05-21T11:19:36;23.80;99.90
15103;DHT22;7652;53.584;9.998;2023-05-21T11:22:58;24.00;99.90
15103;DHT22;7652;53.584;9.998;2023-05-21T11:26:21;24.20;99.90
15103;DHT22;7652;53.584;9.998;2023-05-21T11:29:44;24.30;99.90
15103;DHT22;7652;53.584;9.998;2023-05-21T11:33:18;24.40;99.90
15103;DHT22;7652;53.584;9.998;2023-05-21T11:36:43;24.40;99.90
15103;DHT22;7652;53.584;9.998;2023-05-21T11:40:24;24.40;99.90
15103;DHT22;7652;53.584;9.998;2023-05-21T11:43:59;24.60;99.90
15103;DHT22;7652;53.584;9.998;2023-05-21T11:47:20;24.60;99.90
15103;DHT22;7652;53.584;9.998;2023-05-21T11:50:42;24.80;99.90
15103;DHT22;7652;53.584;9.998;2023-05-21T11:54:07;24.90;99.90
15103;DHT22;7652;53.584;9.998;2023-05-21T11:57:29;25.10;99.90
15103;DHT22;7652;53.584;9.998;2023-05-21T12:00:51;25.20;99.90
15103;DHT22;7652;53.584;9.998;2023-05-21T12:04:12;25.10;99.90
15103;DHT22;7652;53.584;9.998;2023-05-21T12:07:34;25.20;99.90
15103;DHT22;7652;53.584;9.998;2023-05-21T12:10:57;25.40;99.90
15103;DHT22;7652;53.584;9.998;2023-05-21T12:14:20;25.60;99.90
15103;DHT22;7652;53.584;9.998;2023-05-21T12:17:42;25.50;99.90
15103;DHT22;7652;53.584;9.998;2023-05-21T12:21:03;25.50;99.90
15103;DHT22;7652;53.584;9.998;2023-05-21T12:24:26;25.80;99.90
15103;DHT22;7652;53.584;9.998;2023-05-21T12:27:48;25.70;99.90
15103;DHT22;7652;53.584;9.998;2023-05-21T12:31:14;25.60;99.90
15103;DHT22;7652;53.584;9.998;2023-05-21T12:34:39;25.70;99.90
15103;DHT22;7652;53.584;9.998;2023-05-21T12:38:02;25.70;99.90
15103;DHT22;7652;53.584;9.998;2023-05-21T12:41:23;25.60;99.90
15103;DHT22;7652;53.584;9.998;2023-05-21T12:44:47;25.80;99.90
15103;DHT22;7652;53.584;9.998;2023-05-21T12:48:08;26.10;99.90
15103;DHT22;7652;53.584;9.998;2023-05-21T12:51:37;26.20;99.90
15103;DHT22;7652;53.584;9.998;2023-05-21T12:54:59;26.50;99.90
15103;DHT22;7652;53.584;9.998;2023-05-21T12:58:21;26.50;99.90
15103;DHT22;7652;53.584;9.998;2023-05-21T13:01:47;26.40;99.90
15103;DHT22;7652;53.584;9.998;2023-05-21T13:05:14;26.10;99.90
15103;DHT22;7652;53.584;9.998;2023-05-21T13:08:36;26.10;99.90
15103;DHT22;7652;53.584;9.998;2023-05-21T13:11:58;25.90;99.90
15103;DHT22;7652;53.584;9.998;2023-05-21T13:15:20;25.90;99.90
15103;DHT22;7652;53.584;9.998;2023-05-21T13:18:43;25.80;99.90
15103;DHT22;7652;53.584;9.998;2023-05-21T13:22:05;25.80;99.90
15103;DHT22;7652;53.584;9.998;2023-05-21T13:25:27;25.70;99.90
15103;DHT22;7652;53.584;9.998;2023-05-21T13:28:49;25.70;99.90
15103;DHT22;7652;53.584;9.998;2023-05-21T13:32:10;25.60;99.90
15103;DHT22;7652;53.584;9.998;2023-05-21T13:35:33;25.60;99.90
15103;DHT22;7652;53.584;9.998;2023-05-21T13:38:54;25.50;99.90
15103;DHT22;7652;53.584;9.998;2023-05-21T13:42:16;25.60;99.90
15103;DHT22;7652;53.584;9.998;2023-05-21T13:45:37;25.40;99.90
15103;DHT22;7652;53.584;9.998;2023-05-21T13:48:58;25.40;99.90
15103;DHT22;7652;53.584;9.998;2023-05-21T13:52:24;25.40;99.90
15103;DHT22;7652;53.584;9.998;2023-05-21T13:55:45;25.40;99.90
15103;DHT22;7652;53.584;9.998;2023-05-21T13:59:06;25.40;99.90
15103;DHT22;7652;53.584;9.998;2023-05-21T14:02:28;25.40;99.90
15103;DHT22;7652;53.584;9.998;2023-05-21T14:05:50;25.40;99.90
15103;DHT22;7652;53.584;9.998;2023-05-21T14:09:14;25.40;99.90
15103;DHT22;7652;53.584;9.998;2023-05-21T14:12:35;25.40;99.90
15103;DHT22;7652;53.584;9.998;2023-05-21T14:15:58;25.40;99.90
15103;DHT22;7652;53.584;9.998;2023-05-21T14:19:19;25.40;99.90
15103;DHT22;7652;53.584;9.998;2023-05-21T14:22:41;25.40;99.90
15103;DHT22;7652;53.584;9.998;2023-05-21T14:26:04;25.50;99.90
15103;DHT22;7652;53.584;9.998;2023-05-21T14:29:25;25.50;99.90
15103;DHT22;7652;53.584;9.998;2023-05-21T14:32:47;25.40;99.90
15103;DHT22;7652;53.584;9.998;2023-05-21T14:36:08;25.40;99.90
15103;DHT22;7652;53.584;9.998;2023-05-21T14:39:29;25.40;99.90
15103;DHT22;7652;53.584;9.998;2023-05-21T14:42:52;25.40;99.90
15103;DHT22;7652;53.584;9.998;2023-05-21T14:46:15;25.40;99.90
15103;DHT22;7652;53.584;9.998;2023-05-21T14:49:36;25.40;99.90
15103;DHT22;7652;53.584;9.998;2023-05-21T14:52:59;25.40;99.90
15103;DHT22;7652;53.584;9.998;2023-05-21T14:56:24;25.30;99.90
15103;DHT22;7652;53.584;9.998;2023-05-21T14:59:48;25.20;99.90
15103;DHT22;7652;53.584;9.998;2023-05-21T15:03:09;25.20;99.90
15103;DHT22;7652;53.584;9.998;2023-05-21T15:06:32;25.10;99.90
15103;DHT22;7652;53.584;9.998;2023-05-21T15:09:54;25.10;99.90
15103;DHT22;7652;53.584;9.998;2023-05-21T15:13:15;25.10;99.90
15103;DHT22;7652;53.584;9.998;2023-05-21T15:16:38;25.10;99.90
15103;DHT22;7652;53.584;9.998;2023-05-21T15:20:00;25.00;99.90
15103;DHT22;7652;53.584;9.998;2023-05-21T15:23:23;25.00;99.90
15103;DHT22;7652;53.584;9.998;2023-05-21T15:26:45;25.00;99.90
15103;DHT22;7652;53.584;9.998;2023-05-21T15:30:08;24.90;99.90
15103;DHT22;7652;53.584;9.998;2023-05-21T15:33:31;24.80;99.90
15103;DHT22;7652;53.584;9.998;2023-05-21T15:36:52;24.80;99.90
15103;DHT22;7652;53.584;9.998;2023-05-21T15:40:13;24.80;99.90
15103;DHT22;7652;53.584;9.998;2023-05-21T15:43:35;24.80;99.90
15103;DHT22;7652;53.584;9.998;2023-05-21T15:46:57;24.70;99.90
15103;DHT22;7652;53.584;9.998;2023-05-21T15:50:20;24.70;99.90
15103;DHT22;7652;53.584;9.998;2023-05-21T15:53:41;24.70;99.90
15103;DHT22;7652;53.584;9.998;2023-05-21T15:57:03;24.70;99.90
15103;DHT22;7652;53.584;9.998;2023-05-21T16:00:25;24.60;99.90
15103;DHT22;7652;53.584;9.998;2023-05-21T16:03:46;24.60;99.90
15103;DHT22;7652;53.584;9.998;2023-05-21T16:07:10;24.60;99.90
15103;DHT22;7652;53.584;9.998;2023-05-21T16:10:31;24.60;99.90
15103;DHT22;7652;53.584;9.998;2023-05-21T16:13:53;24.80;99.90
15103;DHT22;7652;53.584;9.998;2023-05-21T16:17:14;24.80;99.90
15103;DHT22;7652;53.584;9.998;2023-05-21T16:20:36;24.70;99.90
15103;DHT22;7652;53.584;9.998;2023-05-21T16:23:59;24.70;99.90
15103;DHT22;7652;53.584;9.998;2023-05-21T16:27:22;24.60;99.90
15103;DHT22;7652;53.584;9.998;2023-05-21T16:30:44;24.50;99.90
15103;DHT22;7652;53.584;9.998;2023-05-21T16:34:05;24.50;99.90
15103;DHT22;7652;53.584;9.998;2023-05-21T16:37:26;24.40;99.90
15103;DHT22;7652;53.584;9.998;2023-05-21T16:40:49;24.40;99.90
15103;DHT22;7652;53.584;9.998;2023-05-21T16:44:10;24.40;99.90
15103;DHT22;7652;53.584;9.998;2023-05-21T16:47:32;24.40;99.90
15103;DHT22;7652;53.584;9.998;2023-05-21T16:50:54;24.30;99.90
15103;DHT22;7652;53.584;9.998;2023-05-21T16:54:15;24.20;99.90
15103;DHT22;7652;53.584;9.998;2023-05-21T16:57:37;24.20;99.90
15103;DHT22;7652;53.584;9.998;2023-05-21T17:00:59;24.20;99.90
15103;DHT22;7652;53.584;9.998;2023-05-21T17:04:20;24.20;99.90
15103;DHT22;7652;53.584;9.998;2023-05-21T17:07:42;24.10;99.90
15103;DHT22;7652;53.584;9.998;2023-05-21T17:11:03;24.00;99.90
15103;DHT22;7652;53.584;9.998;2023-05-21T17:14:26;24.00;99.90
15103;DHT22;7652;53.584;9.998;2023-05-21T17:17:51;24.00;99.90
15103;DHT22;7652;53.584;9.998;2023-05-21T17:21:13;23.90;99.90
15103;DHT22;7652;53.584;9.998;2023-05-21T17:24:34;23.90;99.90
15103;DHT22;7652;53.584;9.998;2023-05-21T17:27:56;23.90;99.90
15103;DHT22;7652;53.584;9.998;2023-05-21T17:31:19;23.80;99.90
15103;DHT22;7652;53.584;9.998;2023-05-21T17:34:41;23.80;99.90
15103;DHT22;7652;53.584;9.998;2023-05-21T17:38:03;23.70;99.90
15103;DHT22;7652;53.584;9.998;2023-05-21T17:41:24;23.60;99.90
15103;DHT22;7652;53.584;9.998;2023-05-21T17:44:46;23.50;99.90
15103;DHT22;7652;53.584;9.998;2023-05-21T17:48:08;23.40;99.90
15103;DHT22;7652;53.584;9.998;2023-05-21T17:51:31;23.30;99.90
15103;DHT22;7652;53.584;9.998;2023-05-21T17:54:52;23.20;99.90
15103;DHT22;7652;53.584;9.998;2023-05-21T17:58:13;23.20;99.90
15103;DHT22;7652;53.584;9.998;2023-05-21T18:01:35;23.10;99.90
15103;DHT22;7652;53.584;9.998;2023-05-21T18:04:59;23.00;99.90
15103;DHT22;7652;53.584;9.998;2023-05-21T18:08:20;23.10;99.90
15103;DHT22;7652;53.584;9.998;2023-05-21T18:11:42;23.00;99.90
15103;DHT22;7652;53.584;9.998;2023-05-21T18:15:05;22.90;99.90
15103;DHT22;7652;53.584;9.998;2023-05-21T18:18:27;22.80;99.90
15103;DHT22;7652;53.584;9.998;2023-05-21T18:21:50;22.80;99.90
15103;DHT22;7652;53.584;9.998;2023-05-21T18:25:11;22.70;99.90
15103;DHT22;7652;53.584;9.998;2023-05-21T18:28:33;22.70;99.90
15103;DHT22;7652;53.584;9.998;2023-05-21T18:31:55;22.60;99.90
15103;DHT22;7652;53.584;9.998;2023-05-21T18:35:16;22.60;99.90
15103;DHT22;7652;53.584;9.998;2023-05-21T18:38:39;22.50;99.90
15103;DHT22;7652;53.584;9.998;2023-05-21T18:42:00;22.50;99.90
15103;DHT22;7652;53.584;9.998;2023-05-21T18:45:33;22.50;99.90
15103;DHT22;7652;53.584;9.998;2023-05-21T18:48:55;22.40;99.90
15103;DHT22;7652;53.584;9.998;2023-05-21T18:52:16;22.30;99.90
15103;DHT22;7652;53.584;9.998;2023-05-21T18:55:39;22.30;99.90
15103;DHT22;7652;53.584;9.998;2023-05-21T18:59:01;22.30;99.90
15103;DHT22;7652;53.584;9.998;2023-05-21T19:02:22;22.20;99.90
15103;DHT22;7652;53.584;9.998;2023-05-21T19:05:45;22.20;99.90
15103;DHT22;7652;53.584;9.998;2023-05-21T19:09:07;22.20;99.90
15103;DHT22;7652;53.584;9.998;2023-05-21T19:12:29;22.10;99.90
15103;DHT22;7652;53.584;9.998;2023-05-21T19:15:51;22.10;99.90
15103;DHT22;7652;53.584;9.998;2023-05-21T19:19:12;22.10;99.90
15103;DHT22;7652;53.584;9.998;2023-05-21T19:22:34;22.00;99.90
15103;DHT22;7652;53.584;9.998;2023-05-21T19:25:56;22.00;99.90
15103;DHT22;7652;53.584;9.998;2023-05-21T19:29:19;21.90;99.90
15103;DHT22;7652;53.584;9.998;2023-05-21T19:32:40;21.90;99.90
15103;DHT22;7652;53.584;9.998;2023-05-21T19:36:01;21.90;99.90
15103;DHT22;7652;53.584;9.998;2023-05-21T19:39:23;21.80;99.90
15103;DHT22;7652;53.584;9.998;2023-05-21T19:42:46;21.70;99.90
15103;DHT22;7652;53.584;9.998;2023-05-21T19:46:09;21.70;99.90
15103;DHT22;7652;53.584;9.998;2023-05-21T19:49:30;21.60;99.90
15103;DHT22;7652;53.584;9.998;2023-05-21T19:52:52;21.60;99.90
15103;DHT22;7652;53.584;9.998;2023-05-21T19:56:13;21.50;99.90
15103;DHT22;7652;53.584;9.998;2023-05-21T19:59:34;21.40;99.90
15103;DHT22;7652;53.584;9.998;2023-05-21T20:02:57;21.40;99.90
15103;DHT22;7652;53.584;9.998;2023-05-21T20:06:19;21.40;99.90
15103;DHT22;7652;53.584;9.998;2023-05-21T20:09:41;21.30;99.90
15103;DHT22;7652;53.584;9.998;2023-05-21T20:13:02;21.20;99.90
15103;DHT22;7652;53.584;9.998;2023-05-21T20:16:24;21.20;99.90
15103;DHT22;7652;53.584;9.998;2023-05-21T20:19:46;21.10;99.90
15103;DHT22;7652;53.584;9.998;2023-05-21T20:23:08;21.10;99.90
15103;DHT22;7652;53.584;9.998;2023-05-21T20:26:30;21.10;99.90
15103;DHT22;7652;53.584;9.998;2023-05-21T20:29:54;21.10;99.90
15103;DHT22;7652;53.584;9.998;2023-05-21T20:33:15;21.00;99.90
15103;DHT22;7652;53.584;9.998;2023-05-21T20:36:38;20.90;99.90
15103;DHT22;7652;53.584;9.998;2023-05-21T20:40:00;20.90;99.90
15103;DHT22;7652;53.584;9.998;2023-05-21T20:43:21;20.80;99.90
15103;DHT22;7652;53.584;9.998;2023-05-21T20:46:43;20.80;99.90
15103;DHT22;7652;53.584;9.998;2023-05-21T20:50:06;20.70;99.90
15103;DHT22;7652;53.584;9.998;2023-05-21T20:53:29;20.60;99.90
15103;DHT22;7652;53.584;9.998;2023-05-21T20:56:50;20.70;99.90
15103;DHT22;7652;53.584;9.998;2023-05-21T21:00:14;20.60;99.90
15103;DHT22;7652;53.584;9.998;2023-05-21T21:03:35;20.60;99.90
15103;DHT22;7652;53.584;9.998;2023-05-21T21:07:00;20.60;99.90
15103;DHT22;7652;53.584;9.998;2023-05-21T21:10:23;20.60;99.90
15103;DHT22;7652;53.584;9.998;2023-05-21T21:13:44;20.50;99.90
15103;DHT22;7652;53.584;9.998;2023-05-21T21:17:06;20.50;99.90
15103;DHT22;7652;53.584;9.998;2023-05-21T21:20:27;20.40;99.90
15103;DHT22;7652;53.584;9.998;2023-05-21T21:23:49;20.40;99.90
15103;DHT22;7652;53.584;9.998;2023-05-21T21:27:12;20.40;99.90
15103;DHT22;7652;53.584;9.998;2023-05-21T21:30:34;20.40;99.90
15103;DHT22;7652;53.584;9.998;2023-05-21T21:33:55;20.40;99.90
15103;DHT22;7652;53.584;9.998;2023-05-21T21:37:17;20.30;99.90
15103;DHT22;7652;53.584;9.998;2023-05-21T21:40:38;20.30;99.90
15103;DHT22;7652;53.584;9.998;2023-05-21T21:44:01;20.30;99.90